Relevés horaires Jungfraujoch (Suisse)


Relevés horaires à Jungfraujoch - Vendredi 28 Oct. 2016
Heure UTC1 Température [°C] Vent [km/h] Hum. [%] Pres.4 [hPa] Visi. [Km] Nébu. [octa] Préc.5 [mm] Cond.
2m. Res. Ros. Dir.2 Vit. Moy. Raf.3
23:00 1.0 -4.7 -24.9 NO 25.9 -- 40.7 12 700(-0.4/3h) -- -- -- --
22:00 0.1 -5.9 -26.9 NO 25.9 -- 37.0 11 700(-0.4/3h) -- -- -- --
21:00 1.2 -4.7 -29.1 NO 27.8 -- 37.0 8 700(-0.3/3h) -- -- -- --
20:00 1.0 -4.5 -28.4 NO 24.1 -- 35.2 9 700(-0.2/3h) -- -- -- --
19:00 0.9 -5.3 -29.1 NO 29.6 -- 33.3 8 700(0.0/3h) -- -- -- --
18:00 0.6 -5.5 -27.9 ONO 27.8 -- 51.9 10 700(0.0/3h) 60 6/8 -- --
17:00 -0.2 -6.5 -24.3 NO 27.8 -- 37.0 14 700(-0.1/3h) -- -- -- --
16:00 0.0 -6.4 -25.4 ONO 29.6 -- 42.6 13 700(0.0/3h) -- -- -- --
15:00 -0.5 -6.9 -19.8 NO 27.8 -- 51.9 22 700(0.1/3h) >70 4/8 -- --
14:00 0.8 -5.7 -17.3 NO 33.3 -- 46.3 24 700(0.0/3h) -- -- -- --
13:00 0.4 -5.9 -15.9 NO 29.6 -- 51.9 28 700(0.1/3h) -- -- -- --
12:00 -0.5 -7.6 -16.9 ONO 35.2 -- 51.9 28 700(0.5/3h) >70 3/8 -- --
11:00 -0.3 -7.7 -17.9 ONO 38.9 -- 51.9 25 700(0.6/3h) -- -- -- --
10:00 -0.6 -7.8 -19.5 ONO 35.2 -- 50.0 22 700(0.8/3h) -- -- -- --
09:00 -0.8 -7.9 -20.2 NO 33.3 -- 51.9 21 700(0.7/3h) >70 3/8 -- --
08:00 -1.0 -8.1 -18.7 NO 33.3 -- 51.9 25 700(0.8/3h) -- -- -- --
07:00 -0.9 -7.8 -20.1 ONO 31.5 -- 51.9 22 700(0.6/3h) -- -- -- --
06:00 -1.0 -8.1 -21.1 NO 33.3 -- 53.7 20 700(0.4/3h) >70 6/8 -- --
05:00 -0.7 -6.9 -19.3 ONO 25.9 -- 46.3 23 700(0.2/3h) -- -- -- --
04:00 -0.6 -6.3 -17.9 ONO 22.2 -- 48.2 26 700(0.0/3h) -- -- -- --
03:00 -0.9 -6.7 -17.2 ONO 22.2 -- 53.7 28 700(-0.1/3h) -- -- -- --
02:00 -1.3 -6.6 -14.5 NO 18.5 -- 40.7 36 700(0.0/3h) -- -- -- --
01:00 -1.6 -7.3 -12.2 NO 20.4 -- 53.7 44 700(0.2/3h) -- -- -- --
00:00 -0.6 -5.8 -13.2 ONO 18.5 -- 77.8 38 700(0.4/3h) -- -- -- --

1 Coordinated Universal Time. Actuellement il est 01:00 locale et 23:00 UTC.

2 Le vent souffle depuis la direction indiquée vers la direction oposée.

3 Les rafales max. sont disponible 40 min après l'heure du relevé.

4 Pour les stations d'altitude (plus de 600m) le géopotentiel du niveau le plus proche de la pression obligatoire est indiqué.

5 Les stations disposant d'un diffuseur peuvent indiquer "trace". Cela signifie que des précipitations ont touchés le sol mais que la quantité est inférieure à 0.1 mm.

Copyright

Les données affichées sur cette page sont la propriété exclusive de Météo Suisse.

Récapitulatif de la journée
Température [°C] Vent [km/h] Ensoleillement4 [h] Precipitations totale5 [mm] Pression [Hpa]
Min1 Max.2 Moy.3 Max. Min Max.
-2.0 1.0 0 77.8 8 h 18 min 0 700.0 700.0

1 Température minimale relevée entre 18:00 UTC la veille et 18:00 UTC le jour donné.

2 Température maximale relevée entre 06:00 UTC le jour donné et 06:00 UTC le lendemain.

3 Vent moyen de la journée basé sur les relevés horaires.

4 Ensoleillement en heures relevé entre 06:00 UTC la veille et 06:00 UTC le jour donné.

5 Précipitations totales tombées entre 06:00 UTC la jour donné et 06:00 UTC le lendemain.

Graphiques horaires